MQT1AD LSZH-ELLX
Flight info
| Callsign | MQT1AD |
|---|---|
| Flight time | N/A |
| Altitude | 28000 |
| Route | VEBIT T10 TORPA DCT EDOPI DCT GIVOR |
| Aircraft | A320/M-SDE3FGHIRWY/LB1 |
Departure
| Time | 2026-05-01 14:38 |
|---|---|
| Airport | Zürich Airport (LSZH) |
Arrival
| Time | N/A |
|---|---|
| Airport | Luxembourg-Findel International Airport (ELLX) |
| Time | Latitude | Longitude | Altitude | Speed | Heading |
|---|---|---|---|---|---|
| 2026-05-01 14:13 | 47.46163 | 8.55587 | 1398 ft | 0 kts | 186° |
| 2026-05-01 14:25 | 47.46173 | 8.55589 | 1398 ft | 4 kts | 180° |
| 2026-05-01 14:25 | 47.46199 | 8.55583 | 1398 ft | 4 kts | 156° |
| 2026-05-01 14:25 | 47.46221 | 8.55563 | 1404 ft | 4 kts | 135° |
| 2026-05-01 14:25 | 47.46238 | 8.55533 | 1406 ft | 4 kts | 120° |
| 2026-05-01 14:26 | 47.46250 | 8.55497 | 1405 ft | 4 kts | 109° |
| 2026-05-01 14:26 | 47.46260 | 8.55434 | 1398 ft | 0 kts | 96° |
| 2026-05-01 14:31 | 47.46258 | 8.55461 | 1407 ft | 6 kts | 96° |
| 2026-05-01 14:31 | 47.46253 | 8.55541 | 1408 ft | 9 kts | 96° |
| 2026-05-01 14:31 | 47.46246 | 8.55637 | 1399 ft | 9 kts | 96° |
| 2026-05-01 14:31 | 47.46239 | 8.55734 | 1404 ft | 10 kts | 96° |
| 2026-05-01 14:32 | 47.46231 | 8.55844 | 1405 ft | 12 kts | 96° |
| 2026-05-01 14:32 | 47.46220 | 8.55967 | 1408 ft | 12 kts | 108° |
| 2026-05-01 14:32 | 47.46154 | 8.56001 | 1405 ft | 11 kts | 188° |
| 2026-05-01 14:32 | 47.46078 | 8.55988 | 1410 ft | 11 kts | 181° |
| 2026-05-01 14:33 | 47.46019 | 8.56046 | 1412 ft | 11 kts | 111° |
| 2026-05-01 14:33 | 47.46005 | 8.56181 | 1410 ft | 15 kts | 96° |
| 2026-05-01 14:33 | 47.45982 | 8.56303 | 1404 ft | 8 kts | 136° |
| 2026-05-01 14:33 | 47.45927 | 8.56312 | 1409 ft | 8 kts | 185° |
| 2026-05-01 14:34 | 47.45885 | 8.56305 | 1407 ft | 0 kts | 186° |
| 2026-05-01 14:34 | 47.45860 | 8.56301 | 1404 ft | 8 kts | 186° |
| 2026-05-01 14:34 | 47.45799 | 8.56292 | 1410 ft | 4 kts | 186° |
| 2026-05-01 14:35 | 47.45797 | 8.56292 | 1407 ft | 0 kts | 186° |
| 2026-05-01 14:35 | 47.45792 | 8.56291 | 1402 ft | 4 kts | 186° |
| 2026-05-01 14:35 | 47.45744 | 8.56283 | 1400 ft | 9 kts | 188° |
| 2026-05-01 14:36 | 47.45719 | 8.56205 | 1407 ft | 10 kts | 278° |
| 2026-05-01 14:36 | 47.45719 | 8.56200 | 1399 ft | 0 kts | 278° |
| 2026-05-01 14:37 | 47.45721 | 8.56178 | 1403 ft | 15 kts | 278° |
| 2026-05-01 14:37 | 47.45755 | 8.55717 | 1399 ft | 75 kts | 276° |
| 2026-05-01 14:37 | 47.45828 | 8.54671 | 1402 ft | 128 kts | 276° |
| 2026-05-01 14:38 | 47.45935 | 8.53171 | 1709 ft | 151 kts | 276° |
| 2026-05-01 14:38 | 47.46030 | 8.51662 | 2529 ft | 148 kts | 276° |
| 2026-05-01 14:38 | 47.46136 | 8.50132 | 3302 ft | 151 kts | 278° |
| 2026-05-01 14:38 | 47.46250 | 8.48523 | 3955 ft | 167 kts | 270° |
| 2026-05-01 14:39 | 47.45889 | 8.46824 | 4483 ft | 185 kts | 232° |
| 2026-05-01 14:39 | 47.44855 | 8.45616 | 5042 ft | 199 kts | 211° |
| 2026-05-01 14:39 | 47.43718 | 8.44327 | 5585 ft | 215 kts | 224° |
| 2026-05-01 14:39 | 47.42749 | 8.42519 | 6122 ft | 236 kts | 233° |
| 2026-05-01 14:40 | 47.41771 | 8.40488 | 6986 ft | 251 kts | 234° |
| 2026-05-01 14:40 | 47.40728 | 8.38306 | 7838 ft | 269 kts | 234° |
| 2026-05-01 14:40 | 47.39620 | 8.35986 | 8725 ft | 282 kts | 234° |
| 2026-05-01 14:40 | 47.38576 | 8.33533 | 9724 ft | 290 kts | 241° |
| 2026-05-01 14:41 | 47.37605 | 8.30842 | 10647 ft | 299 kts | 242° |
| 2026-05-01 14:41 | 47.36607 | 8.28041 | 11312 ft | 318 kts | 242° |
| 2026-05-01 14:41 | 47.35554 | 8.25069 | 11923 ft | 336 kts | 242° |
| 2026-05-01 14:41 | 47.34456 | 8.21967 | 12493 ft | 354 kts | 242° |
| 2026-05-01 14:42 | 47.33288 | 8.18670 | 13033 ft | 371 kts | 242° |
| 2026-05-01 14:42 | 47.32074 | 8.15247 | 13713 ft | 382 kts | 242° |
| 2026-05-01 14:42 | 47.30830 | 8.11742 | 14492 ft | 388 kts | 242° |
| 2026-05-01 14:42 | 47.29569 | 8.08195 | 15301 ft | 393 kts | 242° |
| 2026-05-01 14:43 | 47.28396 | 8.04546 | 16064 ft | 397 kts | 249° |
| 2026-05-01 14:43 | 47.27647 | 8.00609 | 16795 ft | 402 kts | 260° |
| 2026-05-01 14:43 | 47.27400 | 7.96497 | 17518 ft | 406 kts | 270° |
| 2026-05-01 14:43 | 47.27650 | 7.92343 | 18222 ft | 409 kts | 278° |
| 2026-05-01 14:44 | 47.28048 | 7.88169 | 18908 ft | 413 kts | 278° |
| 2026-05-01 14:44 | 47.28866 | 7.79712 | 20197 ft | 421 kts | 278° |
| 2026-05-01 14:44 | 47.29276 | 7.75432 | 20827 ft | 424 kts | 278° |
| 2026-05-01 14:45 | 47.29685 | 7.71109 | 21457 ft | 427 kts | 278° |
| 2026-05-01 14:45 | 47.30618 | 7.62384 | 22612 ft | 435 kts | 285° |
| 2026-05-01 14:45 | 47.31504 | 7.58108 | 23164 ft | 438 kts | 288° |
| 2026-05-01 14:46 | 47.32436 | 7.53826 | 23723 ft | 440 kts | 288° |
| 2026-05-01 14:46 | 47.34322 | 7.45162 | 24685 ft | 447 kts | 288° |
| 2026-05-01 14:46 | 47.35274 | 7.40778 | 25147 ft | 449 kts | 288° |
| 2026-05-01 14:47 | 47.36230 | 7.36376 | 25593 ft | 452 kts | 288° |
| 2026-05-01 14:47 | 47.37184 | 7.31957 | 25974 ft | 455 kts | 288° |
| 2026-05-01 14:47 | 47.38143 | 7.27496 | 26333 ft | 457 kts | 288° |
| 2026-05-01 14:48 | 47.40054 | 7.18548 | 27240 ft | 456 kts | 288° |
| 2026-05-01 14:48 | 47.40927 | 7.14050 | 27738 ft | 455 kts | 283° |
| 2026-05-01 14:48 | 47.42283 | 7.04923 | 28231 ft | 454 kts | 283° |
| 2026-05-01 14:49 | 47.44925 | 6.86802 | 28250 ft | 452 kts | 282° |
| 2026-05-01 14:50 | 47.49686 | 6.69970 | 28247 ft | 450 kts | 315° |
| 2026-05-01 14:51 | 47.52113 | 6.67058 | 28246 ft | 450 kts | 328° |
| 2026-05-01 14:51 | 47.57925 | 6.63854 | 28241 ft | 449 kts | 352° |
| 2026-05-01 14:52 | 47.67229 | 6.61965 | 28248 ft | 449 kts | 353° |
| 2026-05-01 14:53 | 47.76531 | 6.60142 | 28256 ft | 450 kts | 353° |
| 2026-05-01 14:53 | 47.82732 | 6.58884 | 28254 ft | 449 kts | 352° |
| 2026-05-01 14:54 | 47.88891 | 6.57621 | 28258 ft | 450 kts | 352° |
| 2026-05-01 14:54 | 47.95095 | 6.56330 | 28258 ft | 450 kts | 352° |
| 2026-05-01 14:55 | 48.01274 | 6.54861 | 28287 ft | 450 kts | 351° |
| 2026-05-01 14:55 | 48.07451 | 6.53319 | 28274 ft | 450 kts | 351° |
| 2026-05-01 14:56 | 48.13631 | 6.51808 | 28263 ft | 450 kts | 351° |
| 2026-05-01 14:56 | 48.19811 | 6.50328 | 28261 ft | 450 kts | 351° |
| 2026-05-01 14:57 | 48.25961 | 6.48851 | 28262 ft | 450 kts | 351° |
| 2026-05-01 14:57 | 48.35233 | 6.46611 | 28259 ft | 450 kts | 351° |
| 2026-05-01 14:58 | 48.41415 | 6.45108 | 28260 ft | 450 kts | 351° |
| 2026-05-01 14:58 | 48.47591 | 6.43605 | 28261 ft | 450 kts | 351° |
| 2026-05-01 14:59 | 48.53767 | 6.42100 | 28261 ft | 449 kts | 351° |
| 2026-05-01 14:59 | 48.59942 | 6.40595 | 28259 ft | 449 kts | 351° |
| 2026-05-01 15:00 | 48.69256 | 6.39463 | 28263 ft | 449 kts | 4° |
| 2026-05-01 15:00 | 48.72353 | 6.39767 | 27356 ft | 446 kts | 4° |
| 2026-05-01 15:01 | 48.75463 | 6.40086 | 26091 ft | 450 kts | 4° |
| 2026-05-01 15:01 | 48.78570 | 6.40408 | 25341 ft | 441 kts | 4° |
| 2026-05-01 15:01 | 48.81599 | 6.40718 | 24658 ft | 432 kts | 4° |
| 2026-05-01 15:01 | 48.84568 | 6.41021 | 23985 ft | 423 kts | 4° |
| 2026-05-01 15:02 | 48.87477 | 6.41317 | 23314 ft | 416 kts | 4° |
| 2026-05-01 15:02 | 48.88448 | 6.41415 | 23082 ft | 414 kts | 4° |
| 2026-05-01 15:02 | 48.93166 | 6.41899 | 21959 ft | 404 kts | 4° |
| 2026-05-01 15:02 | 48.95949 | 6.42185 | 21303 ft | 398 kts | 4° |
| 2026-05-01 15:03 | 48.98698 | 6.42468 | 20644 ft | 393 kts | 4° |
| 2026-05-01 15:03 | 49.01413 | 6.42749 | 19977 ft | 389 kts | 4° |
| 2026-05-01 15:03 | 49.04105 | 6.43027 | 19309 ft | 386 kts | 4° |
| 2026-05-01 15:03 | 49.06772 | 6.43297 | 18646 ft | 383 kts | 4° |
| 2026-05-01 15:04 | 49.09422 | 6.43563 | 17983 ft | 379 kts | 4° |
| 2026-05-01 15:04 | 49.12042 | 6.43825 | 17319 ft | 376 kts | 4° |
| 2026-05-01 15:04 | 49.14652 | 6.44089 | 16653 ft | 373 kts | 4° |
| 2026-05-01 15:04 | 49.17241 | 6.44354 | 15986 ft | 371 kts | 4° |
| 2026-05-01 15:05 | 49.19773 | 6.44528 | 15332 ft | 368 kts | 359° |
| 2026-05-01 15:05 | 49.22315 | 6.44113 | 14663 ft | 366 kts | 349° |
| 2026-05-01 15:05 | 49.24747 | 6.43021 | 14013 ft | 364 kts | 338° |
| 2026-05-01 15:05 | 49.27093 | 6.41438 | 13346 ft | 362 kts | 336° |
| 2026-05-01 15:06 | 49.29348 | 6.39889 | 12707 ft | 359 kts | 336° |
| 2026-05-01 15:06 | 49.31630 | 6.38324 | 11964 ft | 359 kts | 336° |
| 2026-05-01 15:06 | 49.33904 | 6.36763 | 11276 ft | 354 kts | 336° |
| 2026-05-01 15:06 | 49.36145 | 6.35225 | 10782 ft | 339 kts | 336° |
| 2026-05-01 15:07 | 49.38218 | 6.33862 | 10522 ft | 321 kts | 341° |
| 2026-05-01 15:07 | 49.40326 | 6.33006 | 10334 ft | 305 kts | 348° |
| 2026-05-01 15:07 | 49.41710 | 6.32562 | 10288 ft | 299 kts | 348° |
| 2026-05-01 15:07 | 49.44402 | 6.31694 | 10184 ft | 298 kts | 348° |
| 2026-05-01 15:08 | 49.46448 | 6.31031 | 9728 ft | 301 kts | 348° |
| 2026-05-01 15:08 | 49.48417 | 6.30024 | 9405 ft | 298 kts | 330° |
| 2026-05-01 15:08 | 49.49946 | 6.27928 | 9011 ft | 294 kts | 304° |
| 2026-05-01 15:08 | 49.50719 | 6.25061 | 8491 ft | 291 kts | 277° |
| 2026-05-01 15:09 | 49.50739 | 6.22978 | 8139 ft | 288 kts | 260° |
| 2026-05-01 15:09 | 49.50195 | 6.20038 | 7595 ft | 286 kts | 250° |
| 2026-05-01 15:09 | 49.49541 | 6.17142 | 7249 ft | 286 kts | 249° |
| 2026-05-01 15:09 | 49.48882 | 6.14274 | 6816 ft | 283 kts | 249° |
| 2026-05-01 15:10 | 49.48226 | 6.11434 | 6310 ft | 281 kts | 249° |
| 2026-05-01 15:10 | 49.47303 | 6.05713 | 5437 ft | 279 kts | 274° |
| 2026-05-01 15:10 | 49.47863 | 6.02865 | 5208 ft | 273 kts | 300° |
| 2026-05-01 15:11 | 49.49077 | 6.00797 | 5092 ft | 259 kts | 325° |
| 2026-05-01 15:11 | 49.52118 | 5.98158 | 4851 ft | 246 kts | 343° |
| 2026-05-01 15:11 | 49.53782 | 5.98169 | 4729 ft | 240 kts | 22° |
| 2026-05-01 15:12 | 49.55011 | 5.99735 | 4607 ft | 229 kts | 63° |
| 2026-05-01 15:12 | 49.56232 | 6.03912 | 4315 ft | 199 kts | 63° |
| 2026-05-01 15:12 | 49.56889 | 6.05691 | 4204 ft | 184 kts | 62° |
| 2026-05-01 15:13 | 49.58601 | 6.10311 | 3479 ft | 155 kts | 63° |
| 2026-05-01 15:14 | 49.59706 | 6.13263 | 2602 ft | 161 kts | 62° |
| 2026-05-01 15:14 | 49.60269 | 6.14762 | 2165 ft | 163 kts | 61° |
| 2026-05-01 15:14 | 49.61404 | 6.17807 | 1383 ft | 156 kts | 61° |
| 2026-05-01 15:15 | 49.61758 | 6.18768 | 1255 ft | 148 kts | 61° |